sensor_id;sensor_type;location;lat;lon;timestamp;pressure;altitude;pressure_sealevel;temperature;humidity
74675;BME280;63200;48.810;12.352;2024-03-02T00:00:57;96516.03;;;4.87;100.00
74675;BME280;63200;48.810;12.352;2024-03-02T00:03:22;96518.72;;;4.87;100.00
74675;BME280;63200;48.810;12.352;2024-03-02T00:05:50;96516.59;;;4.89;100.00
74675;BME280;63200;48.810;12.352;2024-03-02T00:08:23;96517.94;;;4.91;100.00
74675;BME280;63200;48.810;12.352;2024-03-02T00:10:50;96511.19;;;4.89;100.00
74675;BME280;63200;48.810;12.352;2024-03-02T00:13:15;96514.41;;;4.91;100.00
74675;BME280;63200;48.810;12.352;2024-03-02T00:15:46;96517.09;;;4.91;100.00
74675;BME280;63200;48.810;12.352;2024-03-02T00:18:26;96507.97;;;4.87;100.00
74675;BME280;63200;48.810;12.352;2024-03-02T00:20:56;96513.88;;;4.89;100.00
74675;BME280;63200;48.810;12.352;2024-03-02T00:23:22;96518.72;;;4.87;100.00
74675;BME280;63200;48.810;12.352;2024-03-02T00:25:49;96523.59;;;4.84;100.00
74675;BME280;63200;48.810;12.352;2024-03-02T00:28:23;96516.88;;;4.82;100.00
74675;BME280;63200;48.810;12.352;2024-03-02T00:31:09;96513.91;;;4.83;100.00
74675;BME280;63200;48.810;12.352;2024-03-02T00:33:42;96512.81;;;4.84;100.00
74675;BME280;63200;48.810;12.352;2024-03-02T00:36:09;96513.09;;;4.83;100.00
74675;BME280;63200;48.810;12.352;2024-03-02T00:38:44;96469.31;;;4.57;100.00
74675;BME280;63200;48.810;12.352;2024-03-02T00:41:16;96510.41;;;4.83;100.00
74675;BME280;63200;48.810;12.352;2024-03-02T00:44:01;96510.13;;;4.84;100.00
74675;BME280;63200;48.810;12.352;2024-03-02T00:46:33;96471.16;;;4.61;100.00
74675;BME280;63200;48.810;12.352;2024-03-02T00:49:00;96500.97;;;4.91;100.00
74675;BME280;63200;48.810;12.352;2024-03-02T00:51:27;96447.25;;;4.55;100.00
74675;BME280;63200;48.810;12.352;2024-03-02T00:53:57;96500.44;;;4.94;100.00
74675;BME280;63200;48.810;12.352;2024-03-02T00:56:25;96502.31;;;4.93;100.00
74675;BME280;63200;48.810;12.352;2024-03-02T00:58:51;96449.16;;;4.54;100.00
74675;BME280;63200;48.810;12.352;2024-03-02T01:01:17;96420.38;;;4.39;100.00
74675;BME280;63200;48.810;12.352;2024-03-02T01:03:43;96454.75;;;4.63;100.00
74675;BME280;63200;48.810;12.352;2024-03-02T01:06:09;96450.50;;;4.57;100.00
74675;BME280;63200;48.810;12.352;2024-03-02T01:08:37;96497.75;;;4.94;100.00
74675;BME280;63200;48.810;12.352;2024-03-02T01:11:03;96493.16;;;4.99;100.00
74675;BME280;63200;48.810;12.352;2024-03-02T01:13:29;96501.22;;;5.05;100.00
74675;BME280;63200;48.810;12.352;2024-03-02T01:15:55;96460.13;;;4.78;100.00
74675;BME280;63200;48.810;12.352;2024-03-02T01:18:21;96496.09;;;5.08;100.00
74675;BME280;63200;48.810;12.352;2024-03-02T01:20:47;96493.13;;;5.10;100.00
74675;BME280;63200;48.810;12.352;2024-03-02T01:23:12;96492.88;;;4.96;100.00
74675;BME280;63200;48.810;12.352;2024-03-02T01:25:38;96495.59;;;4.91;100.00
74675;BME280;63200;48.810;12.352;2024-03-02T01:28:04;96486.44;;;4.92;100.00
74675;BME280;63200;48.810;12.352;2024-03-02T01:30:29;96471.16;;;4.77;100.00
74675;BME280;63200;48.810;12.352;2024-03-02T01:32:54;96489.41;;;4.95;100.00
74675;BME280;63200;48.810;12.352;2024-03-02T01:35:20;96491.03;;;4.96;100.00
74675;BME280;63200;48.810;12.352;2024-03-02T01:37:45;96486.72;;;4.95;100.00
74675;BME280;63200;48.810;12.352;2024-03-02T01:40:10;96423.06;;;4.60;100.00
74675;BME280;63200;48.810;12.352;2024-03-02T01:42:37;96436.75;;;4.69;100.00
74675;BME280;63200;48.810;12.352;2024-03-02T01:45:07;96480.78;;;4.93;100.00
74675;BME280;63200;48.810;12.352;2024-03-02T01:47:33;96445.88;;;4.78;100.00
74675;BME280;63200;48.810;12.352;2024-03-02T01:49:59;96475.66;;;5.02;100.00
74675;BME280;63200;48.810;12.352;2024-03-02T01:52:24;96481.06;;;4.92;100.00
74675;BME280;63200;48.810;12.352;2024-03-02T01:54:50;96485.88;;;5.00;100.00
74675;BME280;63200;48.810;12.352;2024-03-02T01:57:15;96443.44;;;4.81;100.00
74675;BME280;63200;48.810;12.352;2024-03-02T01:59:41;96475.66;;;5.02;100.00
74675;BME280;63200;48.810;12.352;2024-03-02T02:02:06;96472.47;;;4.90;100.00
74675;BME280;63200;48.810;12.352;2024-03-02T02:04:32;96420.66;;;4.43;100.00
74675;BME280;63200;48.810;12.352;2024-03-02T02:06:58;96469.81;;;4.84;100.00
74675;BME280;63200;48.810;12.352;2024-03-02T02:09:23;96471.13;;;4.87;100.00
74675;BME280;63200;48.810;12.352;2024-03-02T02:11:50;96477.88;;;4.90;100.00
74675;BME280;63200;48.810;12.352;2024-03-02T02:14:15;96473.00;;;4.87;100.00
74675;BME280;63200;48.810;12.352;2024-03-02T02:16:41;96479.72;;;4.84;100.00
74675;BME280;63200;48.810;12.352;2024-03-02T02:19:06;96473.56;;;4.83;100.00
74675;BME280;63200;48.810;12.352;2024-03-02T02:21:31;96472.50;;;4.84;100.00
74675;BME280;63200;48.810;12.352;2024-03-02T02:23:56;96471.94;;;4.82;100.00
74675;BME280;63200;48.810;12.352;2024-03-02T02:26:22;96469.25;;;4.82;100.00
74675;BME280;63200;48.810;12.352;2024-03-02T02:28:47;96471.41;;;4.86;100.00
74675;BME280;63200;48.810;12.352;2024-03-02T02:31:13;96468.72;;;4.86;100.00
74675;BME280;63200;48.810;12.352;2024-03-02T02:33:41;96468.19;;;4.83;100.00
74675;BME280;63200;48.810;12.352;2024-03-02T02:36:07;96472.47;;;4.90;100.00
74675;BME280;63200;48.810;12.352;2024-03-02T02:38:34;96411.53;;;4.44;100.00
74675;BME280;63200;48.810;12.352;2024-03-02T02:41:02;96434.09;;;4.58;100.00
74675;BME280;63200;48.810;12.352;2024-03-02T02:43:27;96476.50;;;4.92;100.00
74675;BME280;63200;48.810;12.352;2024-03-02T02:45:52;96477.59;;;4.91;100.00
74675;BME280;63200;48.810;12.352;2024-03-02T02:48:18;96477.84;;;4.95;100.00
74675;BME280;63200;48.810;12.352;2024-03-02T02:50:43;96474.63;;;4.88;100.00
74675;BME280;63200;48.810;12.352;2024-03-02T02:53:08;96474.34;;;4.99;100.00
74675;BME280;63200;48.810;12.352;2024-03-02T02:55:35;96475.94;;;5.06;100.00
74675;BME280;63200;48.810;12.352;2024-03-02T02:58:03;96478.06;;;5.04;100.00
74675;BME280;63200;48.810;12.352;2024-03-02T03:00:28;96471.91;;;5.03;100.00
74675;BME280;63200;48.810;12.352;2024-03-02T03:02:53;96478.63;;;5.00;100.00
74675;BME280;63200;48.810;12.352;2024-03-02T03:05:19;96475.41;;;4.93;100.00
74675;BME280;63200;48.810;12.352;2024-03-02T03:07:45;96480.78;;;4.93;100.00
74675;BME280;63200;48.810;12.352;2024-03-02T03:10:10;96471.94;;;4.88;100.00
74675;BME280;63200;48.810;12.352;2024-03-02T03:12:35;96476.75;;;4.96;100.00
74675;BME280;63200;48.810;12.352;2024-03-02T03:15:01;96424.13;;;4.69;100.00
74675;BME280;63200;48.810;12.352;2024-03-02T03:17:26;96460.09;;;4.99;100.00
74675;BME280;63200;48.810;12.352;2024-03-02T03:19:54;96464.41;;;4.95;100.00
74675;BME280;63200;48.810;12.352;2024-03-02T03:22:20;96474.06;;;4.96;100.00
74675;BME280;63200;48.810;12.352;2024-03-02T03:24:45;96465.22;;;4.90;100.00
74675;BME280;63200;48.810;12.352;2024-03-02T03:27:10;96467.34;;;4.93;100.00
74675;BME280;63200;48.810;12.352;2024-03-02T03:29:37;96466.00;;;4.96;100.00
74675;BME280;63200;48.810;12.352;2024-03-02T03:32:02;96465.19;;;4.95;100.00
74675;BME280;63200;48.810;12.352;2024-03-02T03:34:28;96457.94;;;4.91;100.00
74675;BME280;63200;48.810;12.352;2024-03-02T03:36:54;96460.09;;;4.89;100.00
74675;BME280;63200;48.810;12.352;2024-03-02T03:39:19;96459.28;;;4.93;100.00
74675;BME280;63200;48.810;12.352;2024-03-02T03:41:45;96468.44;;;4.92;100.00
74675;BME280;63200;48.810;12.352;2024-03-02T03:44:10;96467.34;;;4.93;100.00
74675;BME280;63200;48.810;12.352;2024-03-02T03:46:35;96465.75;;;4.92;100.00
74675;BME280;63200;48.810;12.352;2024-03-02T03:49:00;96470.56;;;4.95;100.00
74675;BME280;63200;48.810;12.352;2024-03-02T03:51:26;96467.63;;;4.92;100.00
74675;BME280;63200;48.810;12.352;2024-03-02T03:53:51;96461.47;;;4.86;100.00
74675;BME280;63200;48.810;12.352;2024-03-02T03:56:16;96459.84;;;4.85;100.00
74675;BME280;63200;48.810;12.352;2024-03-02T03:58:41;96462.25;;;4.92;100.00
74675;BME280;63200;48.810;12.352;2024-03-02T04:01:07;96454.44;;;5.00;100.00
74675;BME280;63200;48.810;12.352;2024-03-02T04:03:32;96462.75;;;5.04;100.00
74675;BME280;63200;48.810;12.352;2024-03-02T04:05:58;96458.97;;;5.00;100.00
74675;BME280;63200;48.810;12.352;2024-03-02T04:08:23;96466.28;;;4.94;100.00
74675;BME280;63200;48.810;12.352;2024-03-02T04:10:48;96464.63;;;5.09;100.00
74675;BME280;63200;48.810;12.352;2024-03-02T04:13:13;96472.41;;;5.10;100.00
74675;BME280;63200;48.810;12.352;2024-03-02T04:15:39;96470.00;;;5.09;100.00
74675;BME280;63200;48.810;12.352;2024-03-02T04:18:05;96474.63;;;4.88;100.00
74675;BME280;63200;48.810;12.352;2024-03-02T04:20:31;96450.97;;;4.79;100.00
74675;BME280;63200;48.810;12.352;2024-03-02T04:22:56;96472.72;;;4.88;100.00
74675;BME280;63200;48.810;12.352;2024-03-02T04:25:21;96478.94;;;4.89;100.00
74675;BME280;63200;48.810;12.352;2024-03-02T04:27:47;96482.41;;;4.89;100.00
74675;BME280;63200;48.810;12.352;2024-03-02T04:30:12;96482.41;;;4.89;100.00
74675;BME280;63200;48.810;12.352;2024-03-02T04:32:37;96473.28;;;4.90;100.00
74675;BME280;63200;48.810;12.352;2024-03-02T04:35:04;96426.81;;;4.54;100.00
74675;BME280;63200;48.810;12.352;2024-03-02T04:37:30;96485.38;;;4.82;100.00
74675;BME280;63200;48.810;12.352;2024-03-02T04:39:56;96473.56;;;4.83;100.00
74675;BME280;63200;48.810;12.352;2024-03-02T04:42:21;96476.78;;;4.86;100.00
74675;BME280;63200;48.810;12.352;2024-03-02T04:44:47;96488.63;;;4.84;100.00
74675;BME280;63200;48.810;12.352;2024-03-02T04:47:13;96480.56;;;4.90;100.00
74675;BME280;63200;48.810;12.352;2024-03-02T04:49:38;96480.84;;;4.83;100.00
74675;BME280;63200;48.810;12.352;2024-03-02T04:52:03;96492.94;;;4.80;100.00
74675;BME280;63200;48.810;12.352;2024-03-02T04:54:29;96488.63;;;4.79;100.00
74675;BME280;63200;48.810;12.352;2024-03-02T04:56:54;96485.13;;;4.79;100.00
74675;BME280;63200;48.810;12.352;2024-03-02T04:59:19;96485.41;;;4.77;100.00
74675;BME280;63200;48.810;12.352;2024-03-02T05:01:45;96481.38;;;4.75;100.00
74675;BME280;63200;48.810;12.352;2024-03-02T05:04:11;96492.94;;;4.75;100.00
74675;BME280;63200;48.810;12.352;2024-03-02T05:06:39;96484.03;;;4.80;100.00
74675;BME280;63200;48.810;12.352;2024-03-02T05:09:10;96487.56;;;4.86;100.00
74675;BME280;63200;48.810;12.352;2024-03-02T05:11:35;96488.34;;;4.86;100.00
74675;BME280;63200;48.810;12.352;2024-03-02T05:14:06;96498.31;;;4.86;100.00
74675;BME280;63200;48.810;12.352;2024-03-02T05:16:35;96498.03;;;4.87;100.00
74675;BME280;63200;48.810;12.352;2024-03-02T05:19:01;96501.00;;;4.86;100.00
74675;BME280;63200;48.810;12.352;2024-03-02T05:21:27;96493.72;;;4.86;100.00
74675;BME280;63200;48.810;12.352;2024-03-02T05:23:52;96499.91;;;4.87;100.00
74675;BME280;63200;48.810;12.352;2024-03-02T05:26:17;96502.84;;;4.90;100.00
74675;BME280;63200;48.810;12.352;2024-03-02T05:28:43;96449.16;;;4.49;100.00
74675;BME280;63200;48.810;12.352;2024-03-02T05:31:11;96502.34;;;4.78;100.00
74675;BME280;63200;48.810;12.352;2024-03-02T05:33:39;96514.69;;;4.79;100.00
74675;BME280;63200;48.810;12.352;2024-03-02T05:36:05;96510.69;;;4.76;100.00
74675;BME280;63200;48.810;12.352;2024-03-02T05:38:31;96516.88;;;4.77;100.00
74675;BME280;63200;48.810;12.352;2024-03-02T05:40:57;96513.09;;;4.83;100.00
74675;BME280;63200;48.810;12.352;2024-03-02T05:43:22;96521.44;;;4.76;100.00
74675;BME280;63200;48.810;12.352;2024-03-02T05:45:47;96524.94;;;4.72;100.00
74675;BME280;63200;48.810;12.352;2024-03-02T05:48:13;96533.53;;;4.74;100.00
74675;BME280;63200;48.810;12.352;2024-03-02T05:50:38;96529.50;;;4.66;100.00
74675;BME280;63200;48.810;12.352;2024-03-02T05:53:03;96531.09;;;4.72;100.00
74675;BME280;63200;48.810;12.352;2024-03-02T05:55:29;96510.97;;;4.54;100.00
74675;BME280;63200;48.810;12.352;2024-03-02T05:57:54;96531.38;;;4.60;100.00
74675;BME280;63200;48.810;12.352;2024-03-02T06:00:32;96542.94;;;4.61;100.00
74675;BME280;63200;48.810;12.352;2024-03-02T06:02:58;96529.50;;;4.61;100.00
74675;BME280;63200;48.810;12.352;2024-03-02T06:05:23;96543.22;;;4.59;100.00
74675;BME280;63200;48.810;12.352;2024-03-02T06:07:49;96541.34;;;4.60;100.00
74675;BME280;63200;48.810;12.352;2024-03-02T06:10:15;96543.47;;;4.68;100.00
74675;BME280;63200;48.810;12.352;2024-03-02T06:12:40;96551.28;;;4.70;100.00
74675;BME280;63200;48.810;12.352;2024-03-02T06:15:06;96544.03;;;4.70;100.00
74675;BME280;63200;48.810;12.352;2024-03-02T06:17:32;96548.06;;;4.73;100.00
74675;BME280;63200;48.810;12.352;2024-03-02T06:19:57;96540.78;;;4.78;100.00
74675;BME280;63200;48.810;12.352;2024-03-02T06:22:23;96549.13;;;4.77;100.00
74675;BME280;63200;48.810;12.352;2024-03-02T06:24:50;96549.41;;;4.75;100.00
74675;BME280;63200;48.810;12.352;2024-03-02T06:27:15;96525.22;;;4.75;100.00
74675;BME280;63200;48.810;12.352;2024-03-02T06:29:41;96554.50;;;4.97;100.00
74675;BME280;63200;48.810;12.352;2024-03-02T06:32:07;96550.72;;;4.98;100.00
74675;BME280;63200;48.810;12.352;2024-03-02T06:34:32;96549.63;;;5.15;100.00
74675;BME280;63200;48.810;12.352;2024-03-02T06:36:57;96557.69;;;5.20;100.00
74675;BME280;63200;48.810;12.352;2024-03-02T06:39:22;96556.09;;;5.04;100.00
74675;BME280;63200;48.810;12.352;2024-03-02T06:41:48;96553.41;;;4.98;100.00
74675;BME280;63200;48.810;12.352;2024-03-02T06:44:13;96555.81;;;5.15;100.00
74675;BME280;63200;48.810;12.352;2024-03-02T06:46:38;96554.44;;;5.23;100.00
74675;BME280;63200;48.810;12.352;2024-03-02T06:49:04;96563.34;;;5.08;100.00
74675;BME280;63200;48.810;12.352;2024-03-02T06:51:30;96520.63;;;4.91;100.00
74675;BME280;63200;48.810;12.352;2024-03-02T06:53:55;96554.19;;;5.14;100.00
74675;BME280;63200;48.810;12.352;2024-03-02T06:56:20;96573.56;;;5.22;100.00
74675;BME280;63200;48.810;12.352;2024-03-02T06:58:46;96563.06;;;5.20;100.00
74675;BME280;63200;48.810;12.352;2024-03-02T07:01:12;96565.22;;;5.18;100.00
74675;BME280;63200;48.810;12.352;2024-03-02T07:03:37;96562.81;;;5.11;100.00
74675;BME280;63200;48.810;12.352;2024-03-02T07:06:04;96535.69;;;4.82;100.00
74675;BME280;63200;48.810;12.352;2024-03-02T07:08:29;96573.31;;;5.03;100.00
74675;BME280;63200;48.810;12.352;2024-03-02T07:10:55;96586.50;;;5.04;100.00
74675;BME280;63200;48.810;12.352;2024-03-02T07:13:20;96557.44;;;4.91;100.00
74675;BME280;63200;48.810;12.352;2024-03-02T07:15:45;96575.72;;;5.09;100.00
74675;BME280;63200;48.810;12.352;2024-03-02T07:18:39;96583.00;;;4.93;100.00
74675;BME280;63200;48.810;12.352;2024-03-02T07:21:10;96561.22;;;4.95;100.00
74675;BME280;63200;48.810;12.352;2024-03-02T07:23:36;96547.78;;;4.95;100.00
74675;BME280;63200;48.810;12.352;2024-03-02T07:26:01;96555.84;;;4.95;100.00
74675;BME280;63200;48.810;12.352;2024-03-02T07:28:27;96558.50;;;5.10;100.00
74675;BME280;63200;48.810;12.352;2024-03-02T07:31:02;96587.81;;;5.27;100.00
74675;BME280;63200;48.810;12.352;2024-03-02T07:33:32;96551.53;;;5.04;100.00
74675;BME280;63200;48.810;12.352;2024-03-02T07:35:58;96552.84;;;5.17;100.00
74675;BME280;63200;48.810;12.352;2024-03-02T07:38:28;96595.28;;;5.51;100.00
74675;BME280;63200;48.810;12.352;2024-03-02T07:40:54;96589.63;;;5.58;100.00
74675;BME280;63200;48.810;12.352;2024-03-02T07:43:19;96595.28;;;5.56;100.00
74675;BME280;63200;48.810;12.352;2024-03-02T07:45:46;96603.06;;;5.58;100.00
74675;BME280;63200;48.810;12.352;2024-03-02T07:48:11;96594.19;;;5.57;100.00
74675;BME280;63200;48.810;12.352;2024-03-02T07:50:36;96578.06;;;5.57;100.00
74675;BME280;63200;48.810;12.352;2024-03-02T07:53:04;96544.44;;;5.39;100.00
74675;BME280;63200;48.810;12.352;2024-03-02T07:55:30;96594.09;;;5.83;100.00
74675;BME280;63200;48.810;12.352;2024-03-02T07:57:56;96597.53;;;6.09;100.00
74675;BME280;63200;48.810;12.352;2024-03-02T08:00:22;96590.50;;;6.13;100.00
74675;BME280;63200;48.810;12.352;2024-03-02T08:02:48;96596.06;;;6.32;100.00
74675;BME280;63200;48.810;12.352;2024-03-02T08:05:14;96604.78;;;6.59;100.00
74675;BME280;63200;48.810;12.352;2024-03-02T08:07:39;96605.25;;;6.71;100.00
74675;BME280;63200;48.810;12.352;2024-03-02T08:10:05;96609.28;;;6.74;100.00
74675;BME280;63200;48.810;12.352;2024-03-02T08:12:30;96607.19;;;6.65;100.00
74675;BME280;63200;48.810;12.352;2024-03-02T08:14:56;96606.34;;;6.65;100.00
74675;BME280;63200;48.810;12.352;2024-03-02T08:17:21;96607.91;;;6.76;100.00
74675;BME280;63200;48.810;12.352;2024-03-02T08:19:47;96611.84;;;6.89;100.00
74675;BME280;63200;48.810;12.352;2024-03-02T08:22:14;96603.72;;;6.94;100.00
74675;BME280;63200;48.810;12.352;2024-03-02T08:24:40;96614.19;;;7.01;100.00
74675;BME280;63200;48.810;12.352;2024-03-02T08:27:06;96574.16;;;6.79;100.00
74675;BME280;63200;48.810;12.352;2024-03-02T08:29:31;96618.09;;;6.84;100.00
74675;BME280;63200;48.810;12.352;2024-03-02T08:31:56;96623.19;;;6.86;100.00
74675;BME280;63200;48.810;12.352;2024-03-02T08:34:22;96623.19;;;6.86;100.00
74675;BME280;63200;48.810;12.352;2024-03-02T08:36:47;96623.44;;;6.90;100.00
74675;BME280;63200;48.810;12.352;2024-03-02T08:39:13;96622.88;;;6.93;100.00
74675;BME280;63200;48.810;12.352;2024-03-02T08:41:42;96634.00;;;7.21;100.00
74675;BME280;63200;48.810;12.352;2024-03-02T08:44:08;96595.41;;;7.20;100.00
74675;BME280;63200;48.810;12.352;2024-03-02T08:46:34;96627.34;;;7.91;100.00
74675;BME280;63200;48.810;12.352;2024-03-02T08:48:59;96628.97;;;7.67;100.00
74675;BME280;63200;48.810;12.352;2024-03-02T08:51:25;96629.50;;;7.11;100.00
74675;BME280;63200;48.810;12.352;2024-03-02T08:53:50;96636.22;;;6.79;100.00
74675;BME280;63200;48.810;12.352;2024-03-02T08:56:15;96632.00;;;7.61;100.00
74675;BME280;63200;48.810;12.352;2024-03-02T08:58:41;96592.94;;;8.40;100.00
74675;BME280;63200;48.810;12.352;2024-03-02T09:01:06;96634.59;;;8.63;100.00
74675;BME280;63200;48.810;12.352;2024-03-02T09:03:33;96636.72;;;7.98;100.00
74675;BME280;63200;48.810;12.352;2024-03-02T09:06:00;96640.19;;;8.66;100.00
74675;BME280;63200;48.810;12.352;2024-03-02T09:08:25;96640.22;;;7.99;100.00
74675;BME280;63200;48.810;12.352;2024-03-02T09:10:50;96646.50;;;8.62;100.00
74675;BME280;63200;48.810;12.352;2024-03-02T09:13:16;96638.97;;;8.15;100.00
74675;BME280;63200;48.810;12.352;2024-03-02T09:15:41;96633.31;;;8.12;100.00
74675;BME280;63200;48.810;12.352;2024-03-02T09:18:07;96640.50;;;8.22;100.00
74675;BME280;63200;48.810;12.352;2024-03-02T09:20:32;96629.94;;;8.01;100.00
74675;BME280;63200;48.810;12.352;2024-03-02T09:22:57;96631.66;;;7.92;100.00
74675;BME280;63200;48.810;12.352;2024-03-02T09:25:23;96604.03;;;8.19;100.00
74675;BME280;63200;48.810;12.352;2024-03-02T09:27:48;96634.59;;;7.95;100.00
74675;BME280;63200;48.810;12.352;2024-03-02T09:30:13;96641.75;;;8.73;100.00
74675;BME280;63200;48.810;12.352;2024-03-02T09:32:39;96583.22;;;8.20;100.00
74675;BME280;63200;48.810;12.352;2024-03-02T09:35:05;96621.72;;;8.11;100.00
74675;BME280;63200;48.810;12.352;2024-03-02T09:37:30;96641.50;;;7.82;100.00
74675;BME280;63200;48.810;12.352;2024-03-02T09:39:56;96625.38;;;7.48;100.00
74675;BME280;63200;48.810;12.352;2024-03-02T09:42:21;96623.84;;;6.73;100.00
74675;BME280;63200;48.810;12.352;2024-03-02T09:44:47;96634.56;;;6.38;100.00
74675;BME280;63200;48.810;12.352;2024-03-02T09:47:13;96630.25;;;6.37;100.00
74675;BME280;63200;48.810;12.352;2024-03-02T09:49:40;96626.84;;;6.66;100.00
74675;BME280;63200;48.810;12.352;2024-03-02T09:52:05;96618.13;;;6.79;100.00
74675;BME280;63200;48.810;12.352;2024-03-02T09:54:32;96621.13;;;7.12;100.00
74675;BME280;63200;48.810;12.352;2024-03-02T09:56:57;96619.22;;;7.42;100.00
74675;BME280;63200;48.810;12.352;2024-03-02T09:59:22;96613.56;;;7.68;100.00
74675;BME280;63200;48.810;12.352;2024-03-02T10:02:01;96598.50;;;7.32;100.00
74675;BME280;63200;48.810;12.352;2024-03-02T10:04:29;96612.72;;;7.43;100.00
74675;BME280;63200;48.810;12.352;2024-03-02T10:07:14;96614.97;;;7.36;100.00
74675;BME280;63200;48.810;12.352;2024-03-02T10:09:41;96610.88;;;7.39;100.00
74675;BME280;63200;48.810;12.352;2024-03-02T10:12:08;96610.25;;;7.71;100.00
74675;BME280;63200;48.810;12.352;2024-03-02T10:14:34;96607.13;;;8.31;100.00
74675;BME280;63200;48.810;12.352;2024-03-02T10:17:04;96606.81;;;8.14;100.00
74675;BME280;63200;48.810;12.352;2024-03-02T10:19:30;96604.41;;;8.12;100.00
74675;BME280;63200;48.810;12.352;2024-03-02T10:22:00;96603.13;;;8.05;100.00
74675;BME280;63200;48.810;12.352;2024-03-02T10:24:28;96592.56;;;7.84;100.00
74675;BME280;63200;48.810;12.352;2024-03-02T10:26:59;96599.59;;;7.61;100.00
74675;BME280;63200;48.810;12.352;2024-03-02T10:29:24;96602.44;;;7.45;100.00
74675;BME280;63200;48.810;12.352;2024-03-02T10:31:53;96600.22;;;7.77;100.00
74675;BME280;63200;48.810;12.352;2024-03-02T10:34:19;96597.06;;;7.94;100.00
74675;BME280;63200;48.810;12.352;2024-03-02T10:36:47;96599.56;;;8.09;100.00
74675;BME280;63200;48.810;12.352;2024-03-02T10:39:13;96588.84;;;8.42;100.00
74675;BME280;63200;48.810;12.352;2024-03-02T10:41:40;96600.72;;;8.65;100.00
74675;BME280;63200;48.810;12.352;2024-03-02T10:44:07;96563.00;;;8.55;100.00
74675;BME280;63200;48.810;12.352;2024-03-02T10:46:33;96584.03;;;8.58;100.00
74675;BME280;63200;48.810;12.352;2024-03-02T10:49:00;96596.00;;;8.33;100.00
74675;BME280;63200;48.810;12.352;2024-03-02T10:51:30;96590.16;;;8.26;100.00
74675;BME280;63200;48.810;12.352;2024-03-02T10:54:00;96587.72;;;8.05;100.00
74675;BME280;63200;48.810;12.352;2024-03-02T10:56:34;96582.28;;;7.86;100.00
74675;BME280;63200;48.810;12.352;2024-03-02T10:59:26;96593.56;;;7.69;100.00
74675;BME280;63200;48.810;12.352;2024-03-02T11:01:56;96578.94;;;7.94;100.00
74675;BME280;63200;48.810;12.352;2024-03-02T11:04:24;96572.94;;;7.97;100.00
74675;BME280;63200;48.810;12.352;2024-03-02T11:06:50;96570.91;;;8.08;100.00
74675;BME280;63200;48.810;12.352;2024-03-02T11:09:21;96569.88;;;8.04;100.00
74675;BME280;63200;48.810;12.352;2024-03-02T11:11:54;96561.31;;;8.40;100.00
74675;BME280;63200;48.810;12.352;2024-03-02T11:14:24;96527.53;;;8.38;100.00
74675;BME280;63200;48.810;12.352;2024-03-02T11:16:50;96565.97;;;8.73;100.00
74675;BME280;63200;48.810;12.352;2024-03-02T11:19:16;96551.34;;;8.74;100.00
74675;BME280;63200;48.810;12.352;2024-03-02T11:21:42;96547.25;;;8.76;100.00
74675;BME280;63200;48.810;12.352;2024-03-02T11:24:37;96548.09;;;8.91;100.00
74675;BME280;63200;48.810;12.352;2024-03-02T11:27:06;96495.28;;;8.41;100.00
74675;BME280;63200;48.810;12.352;2024-03-02T11:32:03;96544.75;;;9.27;100.00
74675;BME280;63200;48.810;12.352;2024-03-02T11:34:33;96541.44;;;9.30;100.00
74675;BME280;63200;48.810;12.352;2024-03-02T11:36:59;96470.56;;;8.67;100.00
74675;BME280;63200;48.810;12.352;2024-03-02T11:39:29;96535.09;;;9.07;100.00
74675;BME280;63200;48.810;12.352;2024-03-02T11:41:56;96530.38;;;8.98;100.00
74675;BME280;63200;48.810;12.352;2024-03-02T11:44:21;96538.94;;;9.20;100.00
74675;BME280;63200;48.810;12.352;2024-03-02T11:46:52;96521.88;;;9.19;100.00
74675;BME280;63200;48.810;12.352;2024-03-02T11:49:36;96518.88;;;9.21;100.00
74675;BME280;63200;48.810;12.352;2024-03-02T11:52:04;96514.84;;;9.04;100.00
74675;BME280;63200;48.810;12.352;2024-03-02T11:54:32;96518.31;;;8.91;100.00
74675;BME280;63200;48.810;12.352;2024-03-02T11:57:01;96503.41;;;8.93;100.00
74675;BME280;63200;48.810;12.352;2024-03-02T11:59:28;96471.16;;;8.64;100.00
74675;BME280;63200;48.810;12.352;2024-03-02T12:01:54;96501.38;;;8.85;100.00
74675;BME280;63200;48.810;12.352;2024-03-02T12:04:19;96505.72;;;9.14;100.00
74675;BME280;63200;48.810;12.352;2024-03-02T12:06:45;96499.28;;;8.96;100.00
74675;BME280;63200;48.810;12.352;2024-03-02T12:09:12;96504.63;;;9.01;100.00
74675;BME280;63200;48.810;12.352;2024-03-02T12:11:37;96496.59;;;8.96;100.00
74675;BME280;63200;48.810;12.352;2024-03-02T12:14:02;96498.03;;;8.74;100.00
74675;BME280;63200;48.810;12.352;2024-03-02T12:16:29;96473.63;;;8.41;100.00
74675;BME280;63200;48.810;12.352;2024-03-02T12:18:54;96495.06;;;8.57;100.00
74675;BME280;63200;48.810;12.352;2024-03-02T12:21:20;96485.53;;;8.45;100.00
74675;BME280;63200;48.810;12.352;2024-03-02T12:23:46;96483.22;;;8.53;100.00
74675;BME280;63200;48.810;12.352;2024-03-02T12:26:11;96481.16;;;8.63;100.00
74675;BME280;63200;48.810;12.352;2024-03-02T12:28:36;96485.03;;;8.90;100.00
74675;BME280;63200;48.810;12.352;2024-03-02T12:31:02;96475.84;;;9.05;100.00
74675;BME280;63200;48.810;12.352;2024-03-02T12:33:27;96472.75;;;9.12;100.00
74675;BME280;63200;48.810;12.352;2024-03-02T12:35:54;96470.94;;;9.21;100.00
74675;BME280;63200;48.810;12.352;2024-03-02T12:38:19;96474.13;;;9.09;100.00
74675;BME280;63200;48.810;12.352;2024-03-02T12:40:47;96460.78;;;8.99;100.00
74675;BME280;63200;48.810;12.352;2024-03-02T12:43:13;96466.09;;;8.57;100.00
74675;BME280;63200;48.810;12.352;2024-03-02T12:45:38;96452.94;;;8.70;100.00
74675;BME280;63200;48.810;12.352;2024-03-02T12:48:04;96457.03;;;8.81;100.00
74675;BME280;63200;48.810;12.352;2024-03-02T12:50:30;96425.03;;;8.55;100.00